Time;durP1;ratioP1;P1;durP2;ratioP2;P2;SDS_P1;SDS_P2;PMS_P1;PMS_P2;Temp;Humidity;BMP_temperature;BMP_pressure;BME280_temperature;BME280_humidity;BME280_pressure;Samples;Min_cycle;Max_cycle;Signal;HPM_P1;HPM_P2
2021/12/07 00:00:00;;;;;;;22.40;11.90;;;2.90;99.90;;;;;;7394425;19;20498;-76
2021/12/07 00:02:29;;;;;;;24.90;11.93;;;3.00;99.90;;;;;;7393353;19;20086;-76
2021/12/07 00:05:01;;;;;;;24.42;11.05;;;3.00;99.90;;;;;;7393527;19;20015;-76
2021/12/07 00:07:29;;;;;;;22.13;11.18;;;2.90;99.90;;;;;;7395561;19;20486;-76
2021/12/07 00:09:59;;;;;;;20.50;11.82;;;;;;;;;;7393536;19;20449;-76
2021/12/07 00:12:34;;;;;;;21.20;11.02;;;3.00;99.90;;;;;;7396794;19;21304;-76
2021/12/07 00:15:03;;;;;;;20.23;10.90;;;;;;;;;;7392947;19;20010;-76
2021/12/07 00:17:33;;;;;;;19.58;9.95;;;;;;;;;;7396411;19;20085;-77
2021/12/07 00:20:08;;;;;;;22.98;11.57;;;2.70;99.90;;;;;;7392586;19;20035;-77
2021/12/07 00:22:38;;;;;;;23.80;11.10;;;2.90;99.90;;;;;;7394882;19;20014;-77
2021/12/07 00:25:08;;;;;;;21.65;10.70;;;3.30;99.90;;;;;;7395011;19;20022;-76
2021/12/07 00:27:38;;;;;;;22.63;11.13;;;2.80;99.90;;;;;;7395883;19;20022;-77
2021/12/07 00:30:10;;;;;;;20.73;11.00;;;2.80;99.90;;;;;;7401977;19;20356;-76
2021/12/07 00:32:45;;;;;;;24.52;12.45;;;2.80;99.90;;;;;;7404091;19;20368;-76
2021/12/07 00:35:33;;;;;;;23.00;11.65;;;2.80;99.90;;;;;;7404447;19;20384;-76
2021/12/07 00:38:03;;;;;;;24.73;12.50;;;;;;;;;;7402236;19;20082;-77
2021/12/07 00:40:32;;;;;;;22.27;11.35;;;3.20;99.90;;;;;;7404107;19;20066;-76
2021/12/07 00:43:02;;;;;;;21.50;10.88;;;;;;;;;;7404809;19;20515;-77
2021/12/07 00:45:32;;;;;;;23.45;11.70;;;;;;;;;;7404345;19;20019;-77
2021/12/07 00:48:02;;;;;;;25.02;11.55;;;2.60;99.90;;;;;;7403396;19;20427;-77
2021/12/07 00:50:34;;;;;;;23.63;11.20;;;;;;;;;;7404564;19;20094;-77
2021/12/07 00:53:05;;;;;;;24.98;12.20;;;;;;;;;;7405146;19;20021;-77
2021/12/07 00:55:39;;;;;;;24.83;12.30;;;2.50;99.90;;;;;;7403306;19;20014;-77
2021/12/07 00:58:16;;;;;;;23.90;11.90;;;2.50;99.90;;;;;;7405486;19;20419;-77
2021/12/07 01:00:46;;;;;;;25.35;10.57;;;2.50;99.90;;;;;;7404794;19;20014;-77
2021/12/07 01:03:15;;;;;;;23.95;11.90;;;2.70;99.90;;;;;;7405469;19;20015;-77
2021/12/07 01:05:51;;;;;;;25.13;11.80;;;2.40;99.90;;;;;;7404463;19;20007;-77
2021/12/07 01:24:56;;;;;;;26.42;11.20;;;;;;;;;;7404596;19;20106;-76
2021/12/07 01:27:25;;;;;;;23.23;12.02;;;2.10;99.90;;;;;;7402195;19;20375;-77
2021/12/07 01:30:05;;;;;;;26.13;11.80;;;2.10;99.90;;;;;;7403049;19;20090;-76
2021/12/07 01:32:50;;;;;;;26.17;12.70;;;2.20;99.90;;;;;;7402346;19;20018;-77
2021/12/07 01:38:24;;;;;;;22.35;11.32;;;2.20;99.90;;;;;;7401267;19;20018;-77
2021/12/07 01:41:07;;;;;;;25.23;11.55;;;;;;;;;;7401737;19;20062;-76
2021/12/07 01:52:03;;;;;;;26.77;12.20;;;2.30;99.90;;;;;;7404033;19;20022;-77
2021/12/07 01:59:59;;;;;;;24.50;11.68;;;;;;;;;;7397534;19;20010;-77
2021/12/07 02:02:30;;;;;;;26.77;11.95;;;;;;;;;;7404278;19;20078;-77
2021/12/07 02:04:59;;;;;;;27.75;12.57;;;;;;;;;;7401840;19;20510;-78
2021/12/07 02:07:28;;;;;;;27.55;12.23;;;1.80;99.90;;;;;;7400039;19;20088;-76
2021/12/07 02:10:06;;;;;;;27.70;12.10;;;1.80;99.90;;;;;;7399969;19;20014;-76
2021/12/07 02:12:43;;;;;;;23.00;11.43;;;1.70;99.90;;;;;;7400603;19;20355;-77
2021/12/07 02:15:13;;;;;;;27.27;12.73;;;1.70;99.90;;;;;;7402581;19;20396;-76
2021/12/07 02:17:42;;;;;;;27.83;12.55;;;;;;;;;;7399387;19;20031;-76
2021/12/07 02:20:14;;;;;;;27.35;12.73;;;1.60;99.90;;;;;;7399224;19;20098;-76
2021/12/07 02:22:45;;;;;;;28.13;12.40;;;1.60;99.90;;;;;;7400464;19;20015;-76
2021/12/07 02:25:15;;;;;;;27.38;11.77;;;;;;;;;;7401288;19;20023;-76
2021/12/07 02:27:46;;;;;;;25.88;12.27;;;;;;;;;;7398460;19;20416;-76
2021/12/07 02:30:17;;;;;;;26.60;12.20;;;;;;;;;;7399971;19;20015;-77
2021/12/07 02:32:46;;;;;;;27.67;12.13;;;1.30;99.90;;;;;;7400540;19;20473;-77
2021/12/07 02:35:22;;;;;;;35.67;13.65;;;1.40;99.90;;;;;;7399686;19;20015;-77
2021/12/07 02:37:55;;;;;;;27.75;12.27;;;1.30;99.90;;;;;;7400152;19;20037;-77
2021/12/07 02:40:25;;;;;;;29.48;13.15;;;;;;;;;;7399160;19;20014;-77
2021/12/07 02:42:54;;;;;;;26.73;12.98;;;1.30;99.90;;;;;;7398407;19;20074;-76
2021/12/07 02:45:26;;;;;;;30.27;13.45;;;1.30;99.90;;;;;;7397427;19;20006;-76
2021/12/07 02:47:55;;;;;;;24.30;12.30;;;;;;;;;;7397768;19;20031;-76
2021/12/07 02:50:25;;;;;;;33.80;13.98;;;;;;;;;;7397303;19;20038;-77
2021/12/07 02:52:56;;;;;;;25.05;11.93;;;;;;;;;;7399047;19;20420;-77
2021/12/07 02:55:25;;;;;;;37.13;14.30;;;0.80;99.90;;;;;;7400391;19;20010;-77
2021/12/07 02:57:55;;;;;;;30.70;13.20;;;;;;;;;;7399248;19;20342;-77
2021/12/07 03:00:30;;;;;;;28.98;12.43;;;;;;;;;;7396346;19;20022;-76
2021/12/07 03:03:04;;;;;;;30.52;13.85;;;;;;;;;;7395908;19;20007;-76
2021/12/07 03:05:42;;;;;;;33.13;14.35;;;;;;;;;;7395627;19;20010;-76
2021/12/07 03:27:18;;;;;;;31.15;12.70;;;;;;;;;;7396105;19;20482;-76
2021/12/07 03:29:47;;;;;;;32.40;13.23;;;1.20;99.90;;;;;;7396368;19;20022;-76
2021/12/07 03:32:17;;;;;;;29.65;13.30;;;1.20;99.90;;;;;;7397113;19;20022;-76
2021/12/07 03:34:46;;;;;;;30.92;13.18;;;1.30;99.90;;;;;;7397132;19;20517;-76
2021/12/07 03:37:15;;;;;;;28.25;12.63;;;1.40;99.90;;;;;;7398035;19;20010;-76
2021/12/07 03:39:48;;;;;;;30.58;13.20;;;;;;;;;;7395831;19;20479;-76
2021/12/07 03:42:17;;;;;;;26.80;12.32;;;1.50;99.90;;;;;;7395938;19;20021;-76
2021/12/07 03:44:47;;;;;;;26.92;12.18;;;1.10;99.90;;;;;;7397360;19;20474;-76
2021/12/07 03:47:16;;;;;;;29.92;12.98;;;1.00;99.90;;;;;;7393919;19;20077;-76
2021/12/07 03:49:45;;;;;;;29.83;13.07;;;;;;;;;;7397894;19;20026;-76
2021/12/07 03:52:15;;;;;;;27.67;12.45;;;;;;;;;;7394358;19;20074;-76
2021/12/07 03:54:44;;;;;;;26.02;11.95;;;1.20;99.90;;;;;;7395937;19;20073;-76
2021/12/07 03:57:16;;;;;;;27.17;12.13;;;1.30;99.90;;;;;;7396288;19;20425;-76
2021/12/07 03:59:46;;;;;;;26.83;12.23;;;1.10;99.90;;;;;;7393095;19;20011;-76
2021/12/07 04:02:15;;;;;;;28.58;12.35;;;;;;;;;;7393478;19;20340;-76
2021/12/07 04:04:45;;;;;;;27.13;12.85;;;1.50;99.90;;;;;;7396137;19;20493;-76
2021/12/07 04:07:15;;;;;;;27.13;12.45;;;1.30;99.90;;;;;;7393179;19;20475;-76
2021/12/07 04:09:44;;;;;;;28.65;12.75;;;1.60;99.90;;;;;;7396308;19;20029;-76
2021/12/07 04:12:13;;;;;;;25.73;11.82;;;;;;;;;;7394798;19;20015;-76
2021/12/07 04:14:49;;;;;;;25.25;11.95;;;1.50;99.90;;;;;;7394615;19;20038;-76
2021/12/07 04:17:18;;;;;;;23.50;11.43;;;1.40;99.90;;;;;;7394370;19;20010;-76
2021/12/07 04:19:47;;;;;;;27.15;12.93;;;1.40;99.90;;;;;;7392442;19;20014;-75
2021/12/07 04:22:17;;;;;;;26.42;12.05;;;;;;;;;;7396265;19;20015;-75
2021/12/07 04:24:46;;;;;;;29.38;13.30;;;1.40;99.90;;;;;;7392834;19;20374;-76
2021/12/07 04:27:15;;;;;;;29.33;13.35;;;1.50;99.90;;;;;;7394594;19;20014;-76
2021/12/07 04:29:44;;;;;;;29.90;14.27;;;2.00;99.90;;;;;;7395934;19;20035;-77
2021/12/07 04:32:16;;;;;;;30.55;13.95;;;;;;;;;;7396885;19;20010;-76
2021/12/07 04:34:45;;;;;;;22.60;11.80;;;;;;;;;;7392660;19;20024;-76
2021/12/07 04:37:15;;;;;;;32.72;14.55;;;;;;;;;;7396734;19;20370;-76
2021/12/07 04:39:45;;;;;;;28.27;12.75;;;;;;;;;;7392023;19;20031;-76
2021/12/07 04:42:14;;;;;;;32.13;14.18;;;;;;;;;;7393850;19;20031;-76
2021/12/07 04:44:50;;;;;;;31.42;14.23;;;1.50;99.90;;;;;;7395991;19;20032;-76
2021/12/07 04:47:30;;;;;;;34.63;14.27;;;;;;;;;;7394929;19;20372;-76
2021/12/07 04:58:03;;;;;;;32.40;14.15;;;1.90;99.90;;;;;;7395842;19;20015;-77
2021/12/07 05:00:33;;;;;;;31.35;13.65;;;;;;;;;;7391773;19;20018;-77
2021/12/07 05:03:09;;;;;;;29.05;13.50;;;1.60;99.90;;;;;;7395980;19;20031;-77
2021/12/07 05:05:44;;;;;;;29.38;13.52;;;1.20;99.90;;;;;;7394050;19;20051;-77
2021/12/07 05:08:16;;;;;;;36.38;17.27;;;1.70;99.90;;;;;;7394093;19;20011;-76
2021/12/07 05:11:12;;;;;;;33.97;14.43;;;;;;;;;;7392147;19;20026;-76
2021/12/07 05:13:52;;;;;;;32.20;14.57;;;;;;;;;;7392165;19;20015;-77
2021/12/07 05:16:30;;;;;;;33.08;14.60;;;;;;;;;;7398690;19;20025;-77
2021/12/07 05:23:52;;;;;;;31.05;14.77;;;;;;;;;;7402970;19;20459;-77
2021/12/07 05:24:47;;;;;;;30.83;14.13;;;;;;;;;;7401637;19;20022;-76
2021/12/07 05:38:08;;;;;;;34.90;15.40;;;;;;;;;;7400265;19;20015;-76
2021/12/07 05:40:37;;;;;;;30.50;14.35;;;1.50;99.90;;;;;;7396864;19;20019;-76
2021/12/07 05:43:06;;;;;;;36.83;14.07;;;1.40;99.90;;;;;;7399430;19;20041;-76
2021/12/07 05:45:39;;;;;;;32.08;14.07;;;1.50;99.90;;;;;;7398067;19;20505;-76
2021/12/07 05:48:09;;;;;;;36.22;15.90;;;;;;;;;;7400873;19;20014;-76
2021/12/07 05:50:42;;;;;;;35.10;14.48;;;;;;;;;;7401352;19;20018;-76
2021/12/07 05:53:13;;;;;;;38.38;15.00;;;;;;;;;;7402097;19;20015;-76
2021/12/07 05:55:42;;;;;;;36.55;14.88;;;;;;;;;;7398013;19;20015;-76
2021/12/07 05:58:12;;;;;;;36.05;15.77;;;;;;;;;;7398419;19;20078;-76
2021/12/07 06:00:43;;;;;;;31.02;14.10;;;;;;;;;;7395245;19;20086;-76
2021/12/07 06:03:13;;;;;;;33.88;14.68;;;;;;;;;;7397483;19;20025;-76
2021/12/07 06:05:46;;;;;;;35.00;14.32;;;1.50;99.90;;;;;;7398685;19;20021;-76
2021/12/07 06:08:15;;;;;;;32.45;14.05;;;1.40;99.90;;;;;;7397337;19;20487;-76
2021/12/07 06:10:44;;;;;;;35.03;14.35;;;1.30;99.90;;;;;;7398464;19;20018;-76
2021/12/07 06:13:13;;;;;;;36.90;15.25;;;1.50;99.90;;;;;;7397562;19;20034;-76
2021/12/07 06:15:45;;;;;;;34.25;14.55;;;;;;;;;;7399797;19;20014;-76
2021/12/07 06:18:15;;;;;;;35.08;15.18;;;1.30;99.90;;;;;;7397377;19;20011;-76
2021/12/07 06:20:47;;;;;;;32.17;13.95;;;1.40;99.90;;;;;;7395535;19;20538;-76
2021/12/07 06:23:18;;;;;;;36.00;14.73;;;1.30;99.90;;;;;;7397456;19;20041;-76
2021/12/07 06:25:48;;;;;;;35.08;14.80;;;;;;;;;;7396201;19;20035;-76
2021/12/07 06:28:18;;;;;;;32.25;14.95;;;;;;;;;;7398360;19;20014;-76
2021/12/07 06:30:48;;;;;;;36.78;16.33;;;;;;;;;;7396674;19;20037;-76
2021/12/07 06:33:21;;;;;;;40.85;15.75;;;1.20;99.90;;;;;;7397554;19;20019;-76
2021/12/07 06:35:56;;;;;;;34.78;14.88;;;1.10;99.90;;;;;;7397296;19;20011;-76
2021/12/07 06:38:26;;;;;;;38.65;14.55;;;;;;;;;;7398805;19;20021;-76
2021/12/07 06:40:56;;;;;;;33.47;14.35;;;1.30;99.90;;;;;;7396342;19;20033;-76
2021/12/07 06:43:25;;;;;;;32.78;14.10;;;0.90;99.90;;;;;;7400097;19;20034;-76
2021/12/07 06:45:54;;;;;;;36.65;14.25;;;;;;;;;;7396528;19;20039;-76
2021/12/07 06:48:23;;;;;;;35.08;15.45;;;0.70;99.90;;;;;;7399708;19;20019;-76
2021/12/07 06:50:55;;;;;;;33.90;14.15;;;0.90;99.90;;;;;;7397144;19;20014;-76
2021/12/07 06:53:25;;;;;;;36.05;14.85;;;0.80;99.90;;;;;;7395919;19;20010;-75
2021/12/07 06:55:54;;;;;;;32.67;13.57;;;;;;;;;;7397305;19;20363;-76
2021/12/07 06:58:23;;;;;;;36.50;14.75;;;;;;;;;;7398443;19;20078;-76
2021/12/07 07:00:52;;;;;;;39.72;14.05;;;;;;;;;;7396348;19;20011;-76
2021/12/07 07:03:21;;;;;;;31.33;13.93;;;0.60;99.90;;;;;;7395344;19;20014;-76
2021/12/07 07:05:51;;;;;;;36.53;14.65;;;;;;;;;;7398883;19;20426;-76
2021/12/07 07:08:23;;;;;;;32.03;13.68;;;;;;;;;;7395232;19;20356;-76
2021/12/07 07:10:52;;;;;;;38.83;14.93;;;1.00;99.90;;;;;;7398391;19;20022;-76
2021/12/07 07:13:21;;;;;;;34.50;15.18;;;;;;;;;;7395427;19;20019;-76
2021/12/07 07:15:50;;;;;;;29.73;13.18;;;;;;;;;;7396919;19;20053;-76
2021/12/07 07:18:19;;;;;;;37.13;13.90;;;;;;;;;;7395152;19;20078;-76
2021/12/07 07:20:48;;;;;;;38.35;14.85;;;1.10;99.90;;;;;;7397657;19;20031;-75
2021/12/07 07:23:18;;;;;;;29.35;13.80;;;;;;;;;;7397701;19;20011;-76
2021/12/07 07:25:49;;;;;;;30.80;12.25;;;1.10;99.90;;;;;;7395150;19;20014;-77
2021/12/07 07:28:19;;;;;;;31.38;13.07;;;;;;;;;;7397835;19;20078;-76
2021/12/07 07:30:48;;;;;;;34.47;13.68;;;1.00;99.90;;;;;;7394729;19;20006;-76
2021/12/07 07:33:17;;;;;;;35.28;13.52;;;;;;;;;;7397518;19;20021;-76
2021/12/07 07:35:48;;;;;;;32.22;12.90;;;1.10;99.90;;;;;;7394638;19;20487;-76
2021/12/07 07:38:18;;;;;;;37.92;13.90;;;1.20;99.90;;;;;;7395323;19;20022;-76
2021/12/07 07:40:50;;;;;;;31.98;12.10;;;1.20;99.90;;;;;;7394202;19;20014;-76
2021/12/07 07:43:21;;;;;;;31.20;12.55;;;;;;;;;;7397477;19;20014;-76
2021/12/07 07:45:52;;;;;;;30.13;12.85;;;1.30;99.90;;;;;;7395839;19;20038;-76
2021/12/07 07:48:22;;;;;;;32.28;13.52;;;1.50;99.90;;;;;;7397888;19;20015;-76
2021/12/07 07:50:52;;;;;;;30.15;11.73;;;1.30;99.90;;;;;;7398220;19;20014;-76
2021/12/07 07:53:22;;;;;;;28.13;11.05;;;1.30;99.90;;;;;;7397742;19;20022;-76
2021/12/07 07:55:54;;;;;;;26.48;10.45;;;;;;;;;;7394283;19;20344;-76
2021/12/07 07:58:23;;;;;;;29.35;13.02;;;1.70;99.90;;;;;;7397908;19;20022;-75
2021/12/07 08:00:53;;;;;;;25.40;11.80;;;;;;;;;;7392863;19;20015;-76
2021/12/07 08:03:22;;;;;;;26.70;11.70;;;;;;;;;;7397842;19;20085;-76
2021/12/07 08:05:51;;;;;;;27.58;11.85;;;1.70;99.90;;;;;;7398154;19;20025;-76
2021/12/07 08:08:21;;;;;;;27.23;11.10;;;;;;;;;;7397814;19;20055;-76
2021/12/07 08:10:50;;;;;;;24.50;11.27;;;1.60;99.90;;;;;;7396344;19;20022;-76
2021/12/07 08:13:22;;;;;;;24.27;10.10;;;1.70;99.90;;;;;;7393438;19;20014;-76
2021/12/07 08:15:52;;;;;;;26.10;10.40;;;;;;;;;;7393836;19;20010;-76
2021/12/07 08:18:20;;;;;;;28.70;10.30;;;1.80;99.90;;;;;;7394408;19;20019;-76
2021/12/07 08:20:49;;;;;;;29.15;11.50;;;1.80;99.90;;;;;;7393170;19;20035;-76
2021/12/07 08:23:18;;;;;;;28.30;10.75;;;1.80;99.90;;;;;;7396438;19;20073;-76
2021/12/07 08:25:49;;;;;;;26.60;10.63;;;1.80;99.90;;;;;;7396354;19;20346;-76
2021/12/07 08:28:19;;;;;;;26.67;10.93;;;;;;;;;;7392752;19;20035;-76
2021/12/07 08:30:52;;;;;;;22.50;10.38;;;1.80;99.90;;;;;;7392439;19;20010;-76
2021/12/07 08:33:21;;;;;;;27.17;10.90;;;1.80;99.90;;;;;;7394419;19;20022;-76
2021/12/07 08:35:51;;;;;;;26.52;10.05;;;;;;;;;;7372022;19;20014;-76
2021/12/07 08:38:20;;;;;;;23.88;10.55;;;1.80;99.90;;;;;;7344890;19;100016;-76
2021/12/07 08:40:53;;;;;;;24.92;9.90;;;2.20;99.90;;;;;;7395109;19;20018;-76
2021/12/07 08:43:23;;;;;;;25.38;10.77;;;;;;;;;;7383416;19;20010;-76
2021/12/07 08:45:56;;;;;;;22.88;10.07;;;;;;;;;;7389862;19;20414;-76
2021/12/07 08:48:26;;;;;;;32.00;10.88;;;;;;;;;;7389286;19;20015;-76
2021/12/07 08:50:55;;;;;;;26.00;10.90;;;;;;;;;;7396164;19;20478;-76
2021/12/07 08:53:25;;;;;;;23.13;10.60;;;;;;;;;;7395642;19;20035;-76
2021/12/07 09:01:25;;;;;;;26.52;11.07;;;;;;;;;;7392911;19;20070;-76
2021/12/07 09:03:55;;;;;;;26.10;11.00;;;2.10;99.90;;;;;;7395575;19;20055;-76
2021/12/07 09:06:24;;;;;;;24.55;10.77;;;;;;;;;;7393964;19;20670;-76
2021/12/07 09:08:54;;;;;;;25.45;10.02;;;;;;;;;;7398171;19;20019;-76
2021/12/07 09:11:23;;;;;;;25.42;10.43;;;2.20;99.90;;;;;;7396244;19;20047;-76
2021/12/07 09:13:53;;;;;;;24.20;10.07;;;;;;;;;;7394783;19;20042;-76
2021/12/07 09:16:25;;;;;;;29.30;10.68;;;;;;;;;;7392714;19;20026;-76
2021/12/07 09:18:54;;;;;;;23.27;10.65;;;;;;;;;;7368323;19;72017;-75
2021/12/07 09:21:23;;;;;;;24.70;9.80;;;;;;;;;;7395460;19;20015;-76
2021/12/07 09:23:53;;;;;;;23.42;10.52;;;;;;;;;;7392491;19;20018;-75
2021/12/07 09:26:22;;;;;;;22.02;9.57;;;2.50;99.90;;;;;;7394436;19;20014;-76
2021/12/07 09:28:51;;;;;;;23.52;9.57;;;;;;;;;;7392987;19;20010;-75
2021/12/07 09:31:22;;;;;;;19.98;9.57;;;;;;;;;;7392541;19;20433;-76
2021/12/07 09:33:55;;;;;;;21.60;9.65;;;2.50;99.90;;;;;;7395755;19;20014;-76
2021/12/07 09:36:25;;;;;;;23.52;9.70;;;;;;;;;;7395427;19;20015;-76
2021/12/07 09:38:55;;;;;;;24.65;9.20;;;2.90;99.90;;;;;;7393542;19;20385;-76
2021/12/07 09:41:24;;;;;;;19.98;9.45;;;2.80;99.90;;;;;;7392237;19;20475;-76
2021/12/07 09:43:56;;;;;;;21.63;9.55;;;2.80;99.90;;;;;;7395170;19;20435;-77
2021/12/07 09:46:25;;;;;;;24.58;9.70;;;3.20;99.90;;;;;;7395860;19;20493;-77
2021/12/07 09:48:57;;;;;;;26.35;9.43;;;;;;;;;;7397391;19;20130;-76
2021/12/07 09:51:29;;;;;;;21.63;9.15;;;3.00;99.90;;;;;;7395770;19;20018;-76
2021/12/07 09:54:00;;;;;;;21.67;8.88;;;;;;;;;;7395761;19;20042;-76
2021/12/07 09:56:30;;;;;;;21.33;8.60;;;;;;;;;;7392819;19;20491;-76
2021/12/07 09:59:01;;;;;;;22.60;9.10;;;3.10;99.90;;;;;;7394482;19;20023;-75
2021/12/07 10:01:33;;;;;;;19.45;8.88;;;3.20;99.90;;;;;;7390755;19;20383;-76
2021/12/07 10:04:05;;;;;;;25.27;8.73;;;;;;;;;;7395344;19;20035;-76
2021/12/07 10:06:34;;;;;;;20.00;9.45;;;3.20;99.90;;;;;;7396713;19;20038;-76
2021/12/07 10:09:05;;;;;;;21.73;8.73;;;;;;;;;;7392342;19;20618;-77
2021/12/07 10:11:34;;;;;;;25.33;8.82;;;3.30;99.90;;;;;;7392744;19;20101;-76
2021/12/07 10:14:03;;;;;;;18.42;8.48;;;;;;;;;;7394231;19;20036;-76
2021/12/07 10:16:32;;;;;;;21.10;8.60;;;;;;;;;;7394198;19;20014;-77
2021/12/07 10:19:02;;;;;;;21.65;9.07;;;;;;;;;;7394511;19;20039;-77
2021/12/07 10:21:39;;;;;;;22.35;8.90;;;3.60;99.90;;;;;;7395164;19;20015;-78
2021/12/07 10:24:11;;;;;;;20.00;8.90;;;3.80;99.90;;;;;;7395065;19;20029;-76
2021/12/07 10:26:43;;;;;;;26.00;8.20;;;3.50;99.90;;;;;;7395310;19;20014;-77
2021/12/07 10:29:14;;;;;;;18.67;8.20;;;;;;;;;;7390471;19;20495;-77
2021/12/07 10:31:44;;;;;;;19.00;8.32;;;4.10;99.90;;;;;;7391066;19;20030;-77
2021/12/07 10:34:17;;;;;;;14.23;7.55;;;4.10;99.90;;;;;;6774839;19;20472;-77
2021/12/07 10:36:50;;;;;;;20.90;8.55;;;4.20;99.90;;;;;;6326067;19;20060;-78
2021/12/07 10:41:53;;;;;;;21.25;8.70;;;3.90;99.90;;;;;;7422972;19;20778;-77
2021/12/07 10:44:25;;;;;;;18.38;8.10;;;4.20;99.90;;;;;;7425072;19;20081;-76
2021/12/07 10:46:58;;;;;;;18.88;7.85;;;4.20;99.90;;;;;;7428395;19;20022;-76
2021/12/07 10:49:44;;;;;;;20.52;8.13;;;4.30;99.90;;;;;;7324327;19;20034;-77
2021/12/07 10:52:27;;;;;;;18.23;7.18;;;4.40;99.90;;;;;;7426627;19;20015;-78
2021/12/07 10:55:07;;;;;;;18.23;7.65;;;4.20;99.90;;;;;;7424140;19;20021;-77
2021/12/07 10:57:41;;;;;;;20.17;7.03;;;4.40;99.90;;;;;;7426869;19;20618;-78
2021/12/07 11:00:20;;;;;;;19.02;7.47;;;4.30;99.90;;;;;;7423036;19;20525;-78
2021/12/07 11:02:52;;;;;;;16.45;7.00;;;4.40;99.90;;;;;;7424331;19;20432;-78
2021/12/07 11:05:24;;;;;;;17.38;6.65;;;4.40;99.90;;;;;;7425804;19;20019;-78
2021/12/07 11:07:53;;;;;;;16.63;6.85;;;4.50;99.90;;;;;;7423269;19;20018;-78
2021/12/07 11:10:30;;;;;;;17.52;7.70;;;4.50;99.90;;;;;;7424378;19;20035;-78
2021/12/07 11:13:09;;;;;;;17.80;7.75;;;4.70;99.90;;;;;;7423659;19;20021;-78
2021/12/07 11:15:49;;;;;;;14.70;7.68;;;4.40;99.90;;;;;;7426248;19;20018;-78
2021/12/07 11:18:19;;;;;;;16.13;6.63;;;4.50;99.90;;;;;;7425394;19;20374;-78
2021/12/07 11:20:49;;;;;;;22.00;7.55;;;;;;;;;;7424186;19;20014;-78
2021/12/07 11:23:22;;;;;;;15.50;6.68;;;4.50;99.90;;;;;;7424073;19;20035;-78
2021/12/07 11:29:39;;;;;;;16.58;7.20;;;4.50;99.90;;;;;;7424035;19;20018;-78
2021/12/07 11:31:36;;;;;;;22.30;7.57;;;4.60;99.90;;;;;;7425665;19;20018;-78
2021/12/07 11:34:11;;;;;;;16.15;6.88;;;4.60;99.90;;;;;;7424490;19;20019;-78
2021/12/07 11:36:43;;;;;;;15.35;6.10;;;4.70;99.90;;;;;;7424787;19;20090;-78
2021/12/07 11:39:27;;;;;;;13.43;6.50;;;4.70;99.90;;;;;;7424371;19;20061;-78
2021/12/07 11:42:01;;;;;;;17.27;6.70;;;5.00;99.90;;;;;;7423159;19;20024;-78
2021/12/07 11:44:36;;;;;;;21.67;7.18;;;4.80;99.90;;;;;;7425207;19;20027;-78
2021/12/07 11:47:07;;;;;;;23.42;6.63;;;4.70;99.90;;;;;;7422451;19;20549;-78
2021/12/07 11:49:38;;;;;;;18.42;6.80;;;5.00;99.90;;;;;;7425203;19;20425;-78
2021/12/07 11:52:10;;;;;;;15.52;6.10;;;4.80;99.90;;;;;;7406442;19;20521;-78
2021/12/07 11:54:42;;;;;;;13.27;6.00;;;4.90;99.90;;;;;;7393489;19;20430;-78
2021/12/07 11:57:13;;;;;;;15.43;5.95;;;4.90;99.90;;;;;;7395431;19;20022;-78
2021/12/07 11:59:49;;;;;;;16.92;6.78;;;5.00;99.90;;;;;;7393101;19;20019;-78
2021/12/07 12:02:22;;;;;;;;;;;4.90;99.90;;;;;;7394450;19;20034;-78
2021/12/07 12:04:52;;;;;;;14.73;6.28;;;4.80;99.90;;;;;;7392995;19;20015;-78
2021/12/07 12:07:22;;;;;;;10.10;5.15;;;5.00;99.90;;;;;;7394360;19;20036;-78
2021/12/07 12:09:53;;;;;;;17.15;6.07;;;5.50;99.90;;;;;;7393129;19;20353;-78
2021/12/07 12:12:28;;;;;;;17.65;7.22;;;5.20;99.90;;;;;;7394547;19;20503;-77
2021/12/07 12:15:20;;;;;;;15.93;5.90;;;5.40;99.90;;;;;;7390104;19;20018;-78
2021/12/07 12:18:00;;;;;;;18.70;5.88;;;5.80;99.90;;;;;;7397153;19;20015;-78
2021/12/07 12:20:37;;;;;;;19.17;6.60;;;5.60;99.90;;;;;;7398187;19;20426;-77
2021/12/07 12:23:19;;;;;;;16.23;6.03;;;5.20;99.90;;;;;;7399384;19;20082;-77
2021/12/07 12:25:58;;;;;;;19.30;5.80;;;5.50;99.90;;;;;;7400769;19;20036;-78
2021/12/07 12:28:28;;;;;;;20.27;6.75;;;5.50;99.90;;;;;;7397184;19;20019;-78
2021/12/07 12:31:00;;;;;;;15.75;5.32;;;5.50;99.90;;;;;;7396415;19;20025;-78
2021/12/07 12:33:47;;;;;;;15.70;5.88;;;5.50;99.90;;;;;;7397325;19;20023;-78
2021/12/07 12:36:17;;;;;;;15.75;5.90;;;5.60;99.90;;;;;;7396003;19;20038;-78
2021/12/07 12:38:57;;;;;;;10.38;5.15;;;5.80;99.90;;;;;;7398502;19;20024;-78
2021/12/07 12:41:27;;;;;;;14.23;5.60;;;5.60;99.90;;;;;;7395870;19;20010;-78
2021/12/07 12:43:59;;;;;;;13.45;5.35;;;5.60;99.90;;;;;;7397568;19;20073;-77
2021/12/07 12:46:35;;;;;;;17.70;5.47;;;6.00;99.90;;;;;;7394366;19;20019;-78
2021/12/07 12:49:10;;;;;;;14.13;4.95;;;5.70;99.90;;;;;;7391811;19;20014;-76
2021/12/07 12:51:46;;;;;;;14.20;5.20;;;5.70;99.90;;;;;;7394562;19;20029;-77
2021/12/07 12:54:15;;;;;;;;;;;5.90;99.90;;;;;;7395736;19;20508;-78
2021/12/07 12:56:44;;;;;;;10.15;4.97;;;;;;;;;;7394582;19;19962;-78
2021/12/07 12:59:15;;;;;;;14.75;5.72;;;5.80;99.90;;;;;;7393954;19;20026;-79
2021/12/07 13:01:49;;;;;;;14.88;5.30;;;5.80;99.90;;;;;;7391130;19;20082;-78
2021/12/07 13:04:19;;;;;;;14.40;5.00;;;5.70;99.90;;;;;;7389334;19;20644;-78
2021/12/07 13:07:05;;;;;;;10.80;4.78;;;5.80;99.90;;;;;;7391602;19;20007;-78
2021/12/07 13:09:44;;;;;;;13.02;5.25;;;5.70;99.90;;;;;;7390926;19;20044;-78
2021/12/07 13:12:17;;;;;;;17.25;5.10;;;5.70;99.90;;;;;;7385266;19;20018;-77
2021/12/07 13:15:05;;;;;;;14.52;5.68;;;5.50;99.90;;;;;;7389700;19;20089;-77
2021/12/07 13:17:41;;;;;;;17.73;5.25;;;5.70;99.90;;;;;;7391420;19;20054;-77
2021/12/07 13:20:31;;;;;;;11.30;4.43;;;5.70;99.90;;;;;;7390484;19;20014;-77
2021/12/07 13:23:10;;;;;;;12.20;5.03;;;5.50;99.90;;;;;;7390337;19;20026;-77
2021/12/07 13:25:43;;;;;;;14.52;5.13;;;5.50;99.90;;;;;;7395876;19;20026;-77
2021/12/07 13:28:20;;;;;;;14.98;5.30;;;5.50;99.90;;;;;;7393978;19;20082;-77
2021/12/07 13:31:03;;;;;;;13.57;4.80;;;5.50;99.90;;;;;;7395540;19;20031;-77
2021/12/07 13:33:43;;;;;;;15.48;5.50;;;5.60;99.90;;;;;;7389052;19;20014;-77
2021/12/07 13:36:32;;;;;;;12.75;5.60;;;5.70;99.90;;;;;;7396446;19;20070;-78
2021/12/07 13:39:41;;;;;;;15.07;5.10;;;5.50;99.90;;;;;;7396648;19;20045;-77
2021/12/07 13:42:14;;;;;;;16.42;6.30;;;5.50;99.90;;;;;;7393920;19;20010;-77
2021/12/07 13:44:46;;;;;;;11.80;5.70;;;5.90;99.90;;;;;;7397386;19;20891;-76
2021/12/07 13:47:18;;;;;;;12.88;5.90;;;5.10;99.90;;;;;;7394215;19;20018;-77
2021/12/07 13:49:52;;;;;;;18.35;6.15;;;5.60;99.90;;;;;;7393229;19;20010;-78
2021/12/07 13:52:24;;;;;;;20.70;6.00;;;5.70;99.90;;;;;;7392339;19;20014;-77
2021/12/07 13:54:55;;;;;;;18.63;6.47;;;5.50;99.90;;;;;;7383924;19;20024;-77
2021/12/07 13:57:27;;;;;;;15.68;6.00;;;5.40;99.90;;;;;;7396040;19;20043;-76
2021/12/07 14:00:08;;;;;;;15.40;6.72;;;5.30;99.90;;;;;;7392711;19;20017;-77
2021/12/07 14:02:38;;;;;;;16.35;7.07;;;5.20;99.90;;;;;;7390891;19;20017;-77
2021/12/07 14:05:14;;;;;;;16.85;6.28;;;5.20;99.90;;;;;;7393349;19;20018;-77
2021/12/07 14:07:44;;;;;;;17.13;6.57;;;5.70;99.90;;;;;;7393024;19;20504;-77
2021/12/07 14:10:19;;;;;;;18.88;6.88;;;5.10;99.90;;;;;;7392864;19;20458;-77
2021/12/07 14:12:50;;;;;;;17.42;6.57;;;4.80;99.90;;;;;;7389224;19;20019;-76
2021/12/07 14:15:22;;;;;;;20.60;7.07;;;5.00;99.90;;;;;;7396190;19;20022;-76
2021/12/07 14:17:54;;;;;;;17.00;7.20;;;5.10;99.90;;;;;;7393102;19;20386;-77
2021/12/07 14:20:38;;;;;;;17.48;7.22;;;4.90;99.90;;;;;;7396796;19;20029;-77
2021/12/07 14:23:19;;;;;;;15.07;6.50;;;5.00;99.90;;;;;;7393154;19;20013;-76
2021/12/07 14:25:49;;;;;;;17.35;6.68;;;5.00;99.90;;;;;;7392241;19;20006;-76
2021/12/07 14:28:26;;;;;;;15.25;6.93;;;5.20;99.90;;;;;;7394879;19;20035;-76
2021/12/07 14:31:00;;;;;;;17.30;6.75;;;5.00;99.90;;;;;;7395590;19;20018;-76
2021/12/07 14:33:29;;;;;;;20.98;7.15;;;4.90;99.90;;;;;;7391762;19;20025;-76
2021/12/07 14:36:01;;;;;;;21.75;7.55;;;4.20;99.90;;;;;;7395463;19;20025;-77
2021/12/07 14:38:33;;;;;;;19.73;7.22;;;4.50;99.90;;;;;;7393790;19;20022;-76
2021/12/07 14:41:09;;;;;;;21.48;7.47;;;4.50;99.90;;;;;;7390022;19;20044;-77
2021/12/07 14:43:38;;;;;;;;;;;4.50;99.90;;;;;;7393263;19;20014;-76
2021/12/07 14:46:09;;;;;;;19.05;7.05;;;4.30;99.90;;;;;;7391878;19;20266;-76
2021/12/07 14:48:40;;;;;;;17.33;7.35;;;4.30;99.90;;;;;;7391663;19;20029;-77
2021/12/07 14:51:14;;;;;;;13.93;6.85;;;4.10;99.90;;;;;;7391757;19;20082;-76
2021/12/07 14:53:45;;;;;;;20.20;7.18;;;4.20;99.90;;;;;;7391585;19;20007;-76
2021/12/07 14:56:15;;;;;;;16.67;7.22;;;4.20;99.90;;;;;;7391492;19;20520;-76
2021/12/07 14:58:46;;;;;;;14.48;7.03;;;3.90;99.90;;;;;;7391419;19;20029;-76
2021/12/07 15:01:19;;;;;;;21.83;7.35;;;4.00;99.90;;;;;;7389924;19;20014;-77
2021/12/07 15:03:52;;;;;;;15.55;7.28;;;3.70;99.90;;;;;;7387842;19;20036;-76